sensor_id;sensor_type;location;lat;lon;timestamp;pressure;altitude;pressure_sealevel;temperature;humidity
65614;BME280;52283;49.292;10.572;2023-01-31T00:01:07;97062.84;;;1.30;100.00
65614;BME280;52283;49.292;10.572;2023-01-31T00:03:35;97059.78;;;1.08;100.00
65614;BME280;52283;49.292;10.572;2023-01-31T00:06:09;97072.19;;;1.16;100.00
65614;BME280;52283;49.292;10.572;2023-01-31T00:08:36;97052.66;;;1.10;100.00
65614;BME280;52283;49.292;10.572;2023-01-31T00:11:04;97069.72;;;1.21;100.00
65614;BME280;52283;49.292;10.572;2023-01-31T00:13:31;97062.72;;;1.17;100.00
65614;BME280;52283;49.292;10.572;2023-01-31T00:15:58;97061.19;;;1.16;100.00
65614;BME280;52283;49.292;10.572;2023-01-31T00:18:24;97054.91;;;1.15;100.00
65614;BME280;52283;49.292;10.572;2023-01-31T00:20:51;97065.06;;;1.18;100.00
65614;BME280;52283;49.292;10.572;2023-01-31T00:23:17;97071.59;;;1.25;100.00
65614;BME280;52283;49.292;10.572;2023-01-31T00:25:44;97070.06;;;1.23;100.00
65614;BME280;52283;49.292;10.572;2023-01-31T00:28:11;97072.13;;;1.19;100.00
65614;BME280;52283;49.292;10.572;2023-01-31T00:30:38;97085.09;;;1.19;100.00
65614;BME280;52283;49.292;10.572;2023-01-31T00:33:04;97077.91;;;1.25;100.00
65614;BME280;52283;49.292;10.572;2023-01-31T00:35:31;97072.75;;;1.27;100.00
65614;BME280;52283;49.292;10.572;2023-01-31T00:37:57;97081.34;;;1.29;100.00
65614;BME280;52283;49.292;10.572;2023-01-31T00:40:25;97067.72;;;1.22;100.00
65614;BME280;52283;49.292;10.572;2023-01-31T00:42:51;97069.91;;;1.31;100.00
65614;BME280;52283;49.292;10.572;2023-01-31T00:45:19;97073.00;;;1.33;100.00
65614;BME280;52283;49.292;10.572;2023-01-31T00:47:45;97059.81;;;1.24;100.00
65614;BME280;52283;49.292;10.572;2023-01-31T00:50:13;97087.03;;;1.38;100.00
65614;BME280;52283;49.292;10.572;2023-01-31T00:52:40;97083.25;;;1.32;100.00
65614;BME280;52283;49.292;10.572;2023-01-31T00:55:07;97084.81;;;1.33;100.00
65614;BME280;52283;49.292;10.572;2023-01-31T00:57:34;97083.16;;;1.36;100.00
65614;BME280;52283;49.292;10.572;2023-01-31T01:00:01;97093.50;;;1.32;100.00
65614;BME280;52283;49.292;10.572;2023-01-31T01:02:29;97091.69;;;1.41;100.00
65614;BME280;52283;49.292;10.572;2023-01-31T01:04:55;97087.56;;;1.33;100.00
65614;BME280;52283;49.292;10.572;2023-01-31T01:07:22;97104.44;;;1.35;100.00
65614;BME280;52283;49.292;10.572;2023-01-31T01:09:48;97102.00;;;1.37;100.00
65614;BME280;52283;49.292;10.572;2023-01-31T01:12:16;97106.16;;;1.45;100.00
65614;BME280;52283;49.292;10.572;2023-01-31T01:14:43;97110.53;;;1.43;100.00
65614;BME280;52283;49.292;10.572;2023-01-31T01:17:09;97118.97;;;1.36;100.00
65614;BME280;52283;49.292;10.572;2023-01-31T01:19:37;97110.53;;;1.43;100.00
65614;BME280;52283;49.292;10.572;2023-01-31T01:22:03;97116.00;;;1.63;100.00
65614;BME280;52283;49.292;10.572;2023-01-31T01:24:30;97106.31;;;1.38;100.00
65614;BME280;52283;49.292;10.572;2023-01-31T01:26:56;97113.66;;;1.45;100.00
65614;BME280;52283;49.292;10.572;2023-01-31T01:29:24;97108.22;;;1.41;100.00
65614;BME280;52283;49.292;10.572;2023-01-31T01:31:50;97117.34;;;1.38;100.00
65614;BME280;52283;49.292;10.572;2023-01-31T01:34:16;97120.16;;;1.35;100.00
65614;BME280;52283;49.292;10.572;2023-01-31T01:36:45;97117.34;;;1.38;100.00
65614;BME280;52283;49.292;10.572;2023-01-31T01:39:11;97115.00;;;1.37;100.00
65614;BME280;52283;49.292;10.572;2023-01-31T01:41:39;97120.00;;;1.26;100.00
65614;BME280;52283;49.292;10.572;2023-01-31T01:47:09;97121.81;;;1.32;100.00
65614;BME280;52283;49.292;10.572;2023-01-31T01:49:38;97124.28;;;1.27;100.00
65614;BME280;52283;49.292;10.572;2023-01-31T01:52:07;97111.78;;;1.22;100.00
65614;BME280;52283;49.292;10.572;2023-01-31T01:54:41;97106.28;;;1.22;100.00
65614;BME280;52283;49.292;10.572;2023-01-31T01:57:11;97104.47;;;1.15;100.00
65614;BME280;52283;49.292;10.572;2023-01-31T01:59:43;97102.63;;;1.09;100.00
65614;BME280;52283;49.292;10.572;2023-01-31T02:02:11;97112.78;;;1.12;100.00
65614;BME280;52283;49.292;10.572;2023-01-31T02:04:39;97117.44;;;1.15;100.00
65614;BME280;52283;49.292;10.572;2023-01-31T02:07:09;97102.13;;;1.14;100.00
65614;BME280;52283;49.292;10.572;2023-01-31T02:09:41;97122.94;;;1.15;100.00
65614;BME280;52283;49.292;10.572;2023-01-31T02:12:11;97114.53;;;1.22;100.00
65614;BME280;52283;49.292;10.572;2023-01-31T02:14:38;97117.38;;;1.18;100.00
65614;BME280;52283;49.292;10.572;2023-01-31T02:17:11;97129.94;;;1.19;100.00
65614;BME280;52283;49.292;10.572;2023-01-31T02:19:47;97138.53;;;1.21;100.00
65614;BME280;52283;49.292;10.572;2023-01-31T02:22:20;97138.50;;;1.25;100.00
65614;BME280;52283;49.292;10.572;2023-01-31T02:28:18;97138.75;;;1.31;100.00
65614;BME280;52283;49.292;10.572;2023-01-31T02:31:14;97140.66;;;1.34;100.00
65614;BME280;52283;49.292;10.572;2023-01-31T02:33:51;97147.91;;;1.24;100.00
65614;BME280;52283;49.292;10.572;2023-01-31T02:36:29;97146.38;;;1.23;100.00
65614;BME280;52283;49.292;10.572;2023-01-31T02:39:06;97145.03;;;1.31;100.00
65614;BME280;52283;49.292;10.572;2023-01-31T02:41:42;97141.59;;;1.27;100.00
65614;BME280;52283;49.292;10.572;2023-01-31T02:44:18;97144.53;;;1.16;100.00
65614;BME280;52283;49.292;10.572;2023-01-31T02:47:10;97145.53;;;1.26;100.00
65614;BME280;52283;49.292;10.572;2023-01-31T02:49:47;97139.47;;;1.15;100.00
65614;BME280;52283;49.292;10.572;2023-01-31T02:52:20;97145.16;;;1.24;100.00
65614;BME280;52283;49.292;10.572;2023-01-31T02:54:59;97145.75;;;1.15;100.00
65614;BME280;52283;49.292;10.572;2023-01-31T02:57:48;97146.59;;;1.12;100.00
65614;BME280;52283;49.292;10.572;2023-01-31T03:00:17;97136.53;;;1.06;100.00
65614;BME280;52283;49.292;10.572;2023-01-31T03:02:45;97148.16;;;1.13;100.00
65614;BME280;52283;49.292;10.572;2023-01-31T03:05:15;97134.13;;;1.08;100.00
65614;BME280;52283;49.292;10.572;2023-01-31T03:07:43;97139.47;;;1.15;100.00
65614;BME280;52283;49.292;10.572;2023-01-31T03:10:19;97131.97;;;1.15;100.00
65614;BME280;52283;49.292;10.572;2023-01-31T03:13:00;97136.44;;;1.09;100.00
65614;BME280;52283;49.292;10.572;2023-01-31T03:15:40;97139.13;;;1.13;100.00
65614;BME280;52283;49.292;10.572;2023-01-31T03:18:27;97135.16;;;1.14;100.00
65614;BME280;52283;49.292;10.572;2023-01-31T03:21:02;97135.75;;;1.05;100.00
65614;BME280;52283;49.292;10.572;2023-01-31T03:23:31;97141.16;;;1.09;100.00
65614;BME280;52283;49.292;10.572;2023-01-31T03:26:02;97145.41;;;1.13;100.00
65614;BME280;52283;49.292;10.572;2023-01-31T03:28:32;97141.94;;;1.09;100.00
65614;BME280;52283;49.292;10.572;2023-01-31T03:31:04;97165.44;;;1.14;100.00
65614;BME280;52283;49.292;10.572;2023-01-31T03:33:35;97157.88;;;1.18;100.00
65614;BME280;52283;49.292;10.572;2023-01-31T03:36:10;97167.41;;;1.13;100.00
65614;BME280;52283;49.292;10.572;2023-01-31T03:38:45;97184.91;;;1.23;100.00
65614;BME280;52283;49.292;10.572;2023-01-31T03:41:21;97176.59;;;1.07;100.00
65614;BME280;52283;49.292;10.572;2023-01-31T03:43:56;97180.47;;;0.89;100.00
65614;BME280;52283;49.292;10.572;2023-01-31T03:46:27;97181.59;;;0.92;100.00
65614;BME280;52283;49.292;10.572;2023-01-31T03:48:57;97182.31;;;0.96;100.00
65614;BME280;52283;49.292;10.572;2023-01-31T03:51:30;97184.19;;;0.99;100.00
65614;BME280;52283;49.292;10.572;2023-01-31T03:54:01;97198.19;;;1.08;100.00
65614;BME280;52283;49.292;10.572;2023-01-31T03:56:34;97190.13;;;0.98;100.00
65614;BME280;52283;49.292;10.572;2023-01-31T03:59:07;97203.97;;;1.14;100.00
65614;BME280;52283;49.292;10.572;2023-01-31T04:01:38;97188.16;;;0.98;100.00
65614;BME280;52283;49.292;10.572;2023-01-31T04:04:08;97200.03;;;1.15;100.00
65614;BME280;52283;49.292;10.572;2023-01-31T04:06:37;97200.59;;;1.06;100.00
65614;BME280;52283;49.292;10.572;2023-01-31T04:09:04;97207.09;;;1.16;100.00
65614;BME280;52283;49.292;10.572;2023-01-31T04:11:35;97219.59;;;1.20;100.00
65614;BME280;52283;49.292;10.572;2023-01-31T04:14:02;97218.81;;;1.20;100.00
65614;BME280;52283;49.292;10.572;2023-01-31T04:16:29;97223.53;;;1.19;100.00
65614;BME280;52283;49.292;10.572;2023-01-31T04:18:55;97224.53;;;1.09;100.00
65614;BME280;52283;49.292;10.572;2023-01-31T04:21:22;97243.31;;;1.14;100.00
65614;BME280;52283;49.292;10.572;2023-01-31T04:23:49;97241.91;;;1.26;100.00
65614;BME280;52283;49.292;10.572;2023-01-31T04:26:16;97234.47;;;1.23;100.00
65614;BME280;52283;49.292;10.572;2023-01-31T04:28:42;97237.19;;;1.27;100.00
65614;BME280;52283;49.292;10.572;2023-01-31T04:31:09;97236.75;;;1.28;100.00
65614;BME280;52283;49.292;10.572;2023-01-31T04:33:35;97235.41;;;1.16;100.00
65614;BME280;52283;49.292;10.572;2023-01-31T04:36:02;97232.91;;;1.22;100.00
65614;BME280;52283;49.292;10.572;2023-01-31T04:38:29;97234.00;;;1.28;100.00
65614;BME280;52283;49.292;10.572;2023-01-31T04:40:56;97240.75;;;1.23;100.00
65614;BME280;52283;49.292;10.572;2023-01-31T04:43:23;97231.09;;;1.15;100.00
65614;BME280;52283;49.292;10.572;2023-01-31T04:45:49;97234.97;;;1.38;100.00
65614;BME280;52283;49.292;10.572;2023-01-31T04:48:16;97239.69;;;1.17;100.00
65614;BME280;52283;49.292;10.572;2023-01-31T04:50:42;97237.09;;;1.30;100.00
65614;BME280;52283;49.292;10.572;2023-01-31T04:53:09;97228.25;;;1.19;100.00
65614;BME280;52283;49.292;10.572;2023-01-31T04:55:35;97229.97;;;1.33;100.00
65614;BME280;52283;49.292;10.572;2023-01-31T04:58:03;97224.03;;;1.34;100.00
65614;BME280;52283;49.292;10.572;2023-01-31T05:00:30;97212.94;;;1.18;100.00
65614;BME280;52283;49.292;10.572;2023-01-31T05:02:56;97208.72;;;1.13;100.00
65614;BME280;52283;49.292;10.572;2023-01-31T05:05:22;97209.69;;;1.23;100.00
65614;BME280;52283;49.292;10.572;2023-01-31T05:07:49;97192.19;;;1.13;100.00
65614;BME280;52283;49.292;10.572;2023-01-31T05:10:15;97204.69;;;1.18;100.00
65614;BME280;52283;49.292;10.572;2023-01-31T05:12:43;97200.38;;;1.17;100.00
65614;BME280;52283;49.292;10.572;2023-01-31T05:15:11;97202.63;;;1.22;100.00
65614;BME280;52283;49.292;10.572;2023-01-31T05:17:37;97211.25;;;1.24;100.00
65614;BME280;52283;49.292;10.572;2023-01-31T05:20:05;97215.69;;;1.18;100.00
65614;BME280;52283;49.292;10.572;2023-01-31T05:22:32;97211.03;;;1.15;100.00
65614;BME280;52283;49.292;10.572;2023-01-31T05:24:58;97214.78;;;1.25;100.00
65614;BME280;52283;49.292;10.572;2023-01-31T05:27:25;97216.53;;;1.15;100.00
65614;BME280;52283;49.292;10.572;2023-01-31T05:29:51;97215.97;;;1.23;100.00
65614;BME280;52283;49.292;10.572;2023-01-31T05:32:19;97205.88;;;1.17;100.00
65614;BME280;52283;49.292;10.572;2023-01-31T05:34:46;97208.09;;;1.26;100.00
65614;BME280;52283;49.292;10.572;2023-01-31T05:37:12;97203.41;;;1.22;100.00
65614;BME280;52283;49.292;10.572;2023-01-31T05:39:39;97204.69;;;1.18;100.00
65614;BME280;52283;49.292;10.572;2023-01-31T05:42:05;97200.44;;;1.13;100.00
65614;BME280;52283;49.292;10.572;2023-01-31T05:44:32;97205.19;;;1.13;100.00
65614;BME280;52283;49.292;10.572;2023-01-31T05:46:58;97212.31;;;1.10;100.00
65614;BME280;52283;49.292;10.572;2023-01-31T05:49:27;97220.16;;;1.12;100.00
65614;BME280;52283;49.292;10.572;2023-01-31T05:51:57;97222.19;;;1.08;100.00
65614;BME280;52283;49.292;10.572;2023-01-31T05:54:23;97217.94;;;1.03;100.00
65614;BME280;52283;49.292;10.572;2023-01-31T05:56:50;97221.84;;;1.06;100.00
65614;BME280;52283;49.292;10.572;2023-01-31T05:59:17;97235.97;;;1.08;100.00
65614;BME280;52283;49.292;10.572;2023-01-31T06:01:43;97230.31;;;1.15;100.00
65614;BME280;52283;49.292;10.572;2023-01-31T06:04:10;97232.97;;;0.99;100.00
65614;BME280;52283;49.292;10.572;2023-01-31T06:06:41;97233.63;;;1.06;100.00
65614;BME280;52283;49.292;10.572;2023-01-31T06:09:25;97234.88;;;1.02;100.00
65614;BME280;52283;49.292;10.572;2023-01-31T06:11:51;97234.66;;;0.93;100.00
65614;BME280;52283;49.292;10.572;2023-01-31T06:14:17;97239.19;;;1.03;100.00
65614;BME280;52283;49.292;10.572;2023-01-31T06:16:44;97240.22;;;0.89;100.00
65614;BME280;52283;49.292;10.572;2023-01-31T06:19:11;97250.41;;;0.92;100.00
65614;BME280;52283;49.292;10.572;2023-01-31T06:21:37;97243.50;;;0.80;100.00
65614;BME280;52283;49.292;10.572;2023-01-31T06:24:06;97237.66;;;0.78;100.00
65614;BME280;52283;49.292;10.572;2023-01-31T06:26:32;97243.03;;;0.62;100.00
65614;BME280;52283;49.292;10.572;2023-01-31T06:28:59;97243.88;;;0.59;100.00
65614;BME280;52283;49.292;10.572;2023-01-31T06:31:25;97248.38;;;0.49;100.00
65614;BME280;52283;49.292;10.572;2023-01-31T06:33:51;97242.50;;;0.47;100.00
65614;BME280;52283;49.292;10.572;2023-01-31T06:36:18;97235.63;;;0.36;100.00
65614;BME280;52283;49.292;10.572;2023-01-31T06:38:47;97250.06;;;0.40;100.00
65614;BME280;52283;49.292;10.572;2023-01-31T06:41:15;97259.72;;;0.51;100.00
65614;BME280;52283;49.292;10.572;2023-01-31T06:43:42;97255.28;;;0.34;100.00
65614;BME280;52283;49.292;10.572;2023-01-31T06:46:08;97265.00;;;0.42;100.00
65614;BME280;52283;49.292;10.572;2023-01-31T06:48:35;97269.22;;;0.47;100.00
65614;BME280;52283;49.292;10.572;2023-01-31T06:51:01;97265.72;;;0.46;100.00
65614;BME280;52283;49.292;10.572;2023-01-31T06:53:28;97268.72;;;0.28;100.00
65614;BME280;52283;49.292;10.572;2023-01-31T06:55:54;97274.94;;;0.33;100.00
65614;BME280;52283;49.292;10.572;2023-01-31T06:58:22;97274.09;;;0.36;100.00
65614;BME280;52283;49.292;10.572;2023-01-31T07:00:48;97270.22;;;0.33;100.00
65614;BME280;52283;49.292;10.572;2023-01-31T07:03:15;97265.63;;;0.26;100.00
65614;BME280;52283;49.292;10.572;2023-01-31T07:05:43;97264.41;;;0.27;100.00
65614;BME280;52283;49.292;10.572;2023-01-31T07:08:10;97271.78;;;0.34;100.00
65614;BME280;52283;49.292;10.572;2023-01-31T07:10:38;97263.22;;;0.28;100.00
65614;BME280;52283;49.292;10.572;2023-01-31T07:13:05;97269.66;;;0.18;100.00
65614;BME280;52283;49.292;10.572;2023-01-31T07:15:33;97264.56;;;0.17;100.00
65614;BME280;52283;49.292;10.572;2023-01-31T07:17:59;97251.50;;;0.24;100.00
65614;BME280;52283;49.292;10.572;2023-01-31T07:20:26;97263.72;;;0.20;100.00
65614;BME280;52283;49.292;10.572;2023-01-31T07:22:55;97254.88;;;0.09;100.00
65614;BME280;52283;49.292;10.572;2023-01-31T07:25:22;97257.16;;;0.14;100.00
65614;BME280;52283;49.292;10.572;2023-01-31T07:27:49;97245.31;;;0.17;100.00
65614;BME280;52283;49.292;10.572;2023-01-31T07:30:16;97232.41;;;0.14;100.00
65614;BME280;52283;49.292;10.572;2023-01-31T07:32:44;97246.88;;;0.18;100.00
65614;BME280;52283;49.292;10.572;2023-01-31T07:35:10;97237.59;;;0.08;100.00
65614;BME280;52283;49.292;10.572;2023-01-31T07:37:37;97246.00;;;0.24;100.00
65614;BME280;52283;49.292;10.572;2023-01-31T07:40:04;97252.34;;;0.21;100.00
65614;BME280;52283;49.292;10.572;2023-01-31T07:42:31;97251.56;;;0.21;100.00
65614;BME280;52283;49.292;10.572;2023-01-31T07:44:57;97258.72;;;0.42;100.00
65614;BME280;52283;49.292;10.572;2023-01-31T07:47:24;97262.28;;;0.39;100.00
65614;BME280;52283;49.292;10.572;2023-01-31T07:49:51;97267.88;;;0.32;100.00
65614;BME280;52283;49.292;10.572;2023-01-31T07:52:18;97276.50;;;0.34;100.00
65614;BME280;52283;49.292;10.572;2023-01-31T07:54:44;97275.34;;;0.31;100.00
65614;BME280;52283;49.292;10.572;2023-01-31T07:57:11;97281.28;;;0.29;100.00
65614;BME280;52283;49.292;10.572;2023-01-31T07:59:38;97275.88;;;0.49;100.00
65614;BME280;52283;49.292;10.572;2023-01-31T08:02:08;97282.56;;;0.48;100.00
65614;BME280;52283;49.292;10.572;2023-01-31T08:04:54;97296.66;;;0.50;100.00
65614;BME280;52283;49.292;10.572;2023-01-31T08:07:20;97290.28;;;0.57;100.00
65614;BME280;52283;49.292;10.572;2023-01-31T08:09:47;97289.41;;;0.64;100.00
65614;BME280;52283;49.292;10.572;2023-01-31T08:12:14;97289.50;;;0.56;100.00
65614;BME280;52283;49.292;10.572;2023-01-31T08:14:41;97281.81;;;0.71;100.00
65614;BME280;52283;49.292;10.572;2023-01-31T08:17:07;97291.72;;;0.65;100.00
65614;BME280;52283;49.292;10.572;2023-01-31T08:19:34;97291.59;;;0.72;100.00
65614;BME280;52283;49.292;10.572;2023-01-31T08:22:02;97296.50;;;0.61;100.00
65614;BME280;52283;49.292;10.572;2023-01-31T08:24:29;97296.75;;;0.70;100.00
65614;BME280;52283;49.292;10.572;2023-01-31T08:26:56;97296.88;;;0.63;100.00
65614;BME280;52283;49.292;10.572;2023-01-31T08:29:23;97299.03;;;0.75;100.00
65614;BME280;52283;49.292;10.572;2023-01-31T08:31:50;97307.13;;;0.86;100.00
65614;BME280;52283;49.292;10.572;2023-01-31T08:34:16;97311.16;;;0.78;100.00
65614;BME280;52283;49.292;10.572;2023-01-31T08:36:43;97301.00;;;0.75;100.00
65614;BME280;52283;49.292;10.572;2023-01-31T08:39:11;97303.03;;;0.94;100.00
65614;BME280;52283;49.292;10.572;2023-01-31T08:41:38;97303.88;;;0.91;100.00
65614;BME280;52283;49.292;10.572;2023-01-31T08:44:05;97311.41;;;1.10;100.00
65614;BME280;52283;49.292;10.572;2023-01-31T08:46:33;97305.84;;;1.14;100.00
65614;BME280;52283;49.292;10.572;2023-01-31T08:49:01;97320.88;;;1.09;100.00
65614;BME280;52283;49.292;10.572;2023-01-31T08:51:28;97320.56;;;1.27;100.00
65614;BME280;52283;49.292;10.572;2023-01-31T08:53:55;97326.59;;;0.95;100.00
65614;BME280;52283;49.292;10.572;2023-01-31T08:56:23;97319.75;;;1.07;100.00
65614;BME280;52283;49.292;10.572;2023-01-31T08:58:51;97323.31;;;1.04;100.00
65614;BME280;52283;49.292;10.572;2023-01-31T09:01:19;97319.03;;;1.22;100.00
65614;BME280;52283;49.292;10.572;2023-01-31T09:03:46;97320.03;;;1.12;100.00
65614;BME280;52283;49.292;10.572;2023-01-31T09:06:16;97311.00;;;1.12;100.00
65614;BME280;52283;49.292;10.572;2023-01-31T09:08:43;97298.72;;;1.16;100.00
65614;BME280;52283;49.292;10.572;2023-01-31T09:11:10;97306.06;;;1.00;100.00
65614;BME280;52283;49.292;10.572;2023-01-31T09:13:42;97302.66;;;1.15;100.00
65614;BME280;52283;49.292;10.572;2023-01-31T09:16:10;97305.88;;;1.34;100.00
65614;BME280;52283;49.292;10.572;2023-01-31T09:18:39;97304.84;;;1.24;100.00
65614;BME280;52283;49.292;10.572;2023-01-31T09:21:08;97303.69;;;1.02;100.00
65614;BME280;52283;49.292;10.572;2023-01-31T09:23:35;97293.91;;;1.20;100.00
65614;BME280;52283;49.292;10.572;2023-01-31T09:26:01;97301.13;;;1.14;100.00
65614;BME280;52283;49.292;10.572;2023-01-31T09:28:28;97290.75;;;1.22;100.00
65614;BME280;52283;49.292;10.572;2023-01-31T09:31:01;97291.47;;;1.26;100.00
65614;BME280;52283;49.292;10.572;2023-01-31T09:33:30;97291.22;;;1.17;100.00
65614;BME280;52283;49.292;10.572;2023-01-31T09:35:58;97291.13;;;1.44;100.00
65614;BME280;52283;49.292;10.572;2023-01-31T09:38:25;97290.06;;;1.38;100.00
65614;BME280;52283;49.292;10.572;2023-01-31T09:40:52;97286.53;;;1.37;100.00
65614;BME280;52283;49.292;10.572;2023-01-31T09:43:23;97292.63;;;1.48;100.00
65614;BME280;52283;49.292;10.572;2023-01-31T09:45:52;97287.16;;;1.45;100.00
65614;BME280;52283;49.292;10.572;2023-01-31T09:48:27;97289.06;;;1.28;100.00
65614;BME280;52283;49.292;10.572;2023-01-31T09:50:55;97288.00;;;1.42;100.00
65614;BME280;52283;49.292;10.572;2023-01-31T09:53:28;97308.50;;;1.41;100.00
65614;BME280;52283;49.292;10.572;2023-01-31T09:56:09;97298.75;;;1.56;100.00
65614;BME280;52283;49.292;10.572;2023-01-31T09:58:45;97302.88;;;1.48;100.00
65614;BME280;52283;49.292;10.572;2023-01-31T10:01:22;97295.03;;;1.46;100.00
65614;BME280;52283;49.292;10.572;2023-01-31T10:04:07;97291.00;;;1.51;100.00
65614;BME280;52283;49.292;10.572;2023-01-31T10:06:43;97309.94;;;1.49;100.00
65614;BME280;52283;49.292;10.572;2023-01-31T10:09:19;97295.56;;;1.38;100.00
65614;BME280;52283;49.292;10.572;2023-01-31T10:11:51;97303.78;;;1.61;100.00
65614;BME280;52283;49.292;10.572;2023-01-31T10:14:28;97299.63;;;1.53;100.00
65614;BME280;52283;49.292;10.572;2023-01-31T10:17:01;97312.69;;;1.49;100.00
65614;BME280;52283;49.292;10.572;2023-01-31T10:19:36;97312.78;;;1.42;100.00
65614;BME280;52283;49.292;10.572;2023-01-31T10:22:09;97300.31;;;1.37;100.00
65614;BME280;52283;49.292;10.572;2023-01-31T10:24:40;97304.78;;;1.51;100.00
65614;BME280;52283;49.292;10.572;2023-01-31T10:27:14;97296.22;;;1.65;100.00
65614;BME280;52283;49.292;10.572;2023-01-31T10:29:44;97263.03;;;1.72;100.00
65614;BME280;52283;49.292;10.572;2023-01-31T10:32:19;97252.41;;;1.91;100.00
65614;BME280;52283;49.292;10.572;2023-01-31T10:34:50;97239.63;;;1.80;100.00
65614;BME280;52283;49.292;10.572;2023-01-31T10:37:28;97242.38;;;1.80;100.00
65614;BME280;52283;49.292;10.572;2023-01-31T10:39:58;97248.03;;;1.73;100.00
65614;BME280;52283;49.292;10.572;2023-01-31T10:42:29;97253.03;;;1.78;100.00
65614;BME280;52283;49.292;10.572;2023-01-31T10:45:00;97258.13;;;1.60;100.00
65614;BME280;52283;49.292;10.572;2023-01-31T10:47:31;97261.38;;;1.75;100.00
65614;BME280;52283;49.292;10.572;2023-01-31T10:50:00;97254.75;;;1.72;100.00
65614;BME280;52283;49.292;10.572;2023-01-31T10:52:39;97249.16;;;1.76;100.00
65614;BME280;52283;49.292;10.572;2023-01-31T10:55:24;97241.94;;;1.82;100.00
65614;BME280;52283;49.292;10.572;2023-01-31T10:57:55;97258.03;;;1.83;100.00
65614;BME280;52283;49.292;10.572;2023-01-31T11:00:27;97251.13;;;1.95;100.00
65614;BME280;52283;49.292;10.572;2023-01-31T11:02:54;97249.44;;;1.81;100.00
65614;BME280;52283;49.292;10.572;2023-01-31T11:05:24;97243.19;;;1.97;100.00
65614;BME280;52283;49.292;10.572;2023-01-31T11:07:51;97227.84;;;1.60;100.00
65614;BME280;52283;49.292;10.572;2023-01-31T11:10:23;97231.50;;;1.73;100.00
65614;BME280;52283;49.292;10.572;2023-01-31T11:12:54;97237.06;;;1.90;100.00
65614;BME280;52283;49.292;10.572;2023-01-31T11:15:24;97232.38;;;1.87;100.00
65614;BME280;52283;49.292;10.572;2023-01-31T11:17:52;97225.41;;;1.82;100.00
65614;BME280;52283;49.292;10.572;2023-01-31T11:20:26;97214.47;;;1.78;100.00
65614;BME280;52283;49.292;10.572;2023-01-31T11:22:55;97206.97;;;1.79;100.00
65614;BME280;52283;49.292;10.572;2023-01-31T11:25:24;97202.41;;;1.72;100.00
65614;BME280;52283;49.292;10.572;2023-01-31T11:27:53;97195.00;;;1.86;100.00
65614;BME280;52283;49.292;10.572;2023-01-31T11:30:22;97188.72;;;1.85;100.00
65614;BME280;52283;49.292;10.572;2023-01-31T11:32:48;97198.91;;;1.88;100.00
65614;BME280;52283;49.292;10.572;2023-01-31T11:35:27;97186.44;;;2.16;100.00
65614;BME280;52283;49.292;10.572;2023-01-31T11:37:56;97198.06;;;1.91;100.00
65614;BME280;52283;49.292;10.572;2023-01-31T11:40:29;97193.22;;;1.95;100.00
65614;BME280;52283;49.292;10.572;2023-01-31T11:42:57;97186.94;;;1.95;100.00
65614;BME280;52283;49.292;10.572;2023-01-31T11:45:25;97181.94;;;1.90;100.00
65614;BME280;52283;49.292;10.572;2023-01-31T11:47:56;97174.78;;;1.92;100.00
65614;BME280;52283;49.292;10.572;2023-01-31T11:50:26;97169.06;;;1.83;100.00
65614;BME280;52283;49.292;10.572;2023-01-31T11:52:59;97162.22;;;1.91;100.00
65614;BME280;52283;49.292;10.572;2023-01-31T11:55:27;97159.63;;;2.00;100.00
65614;BME280;52283;49.292;10.572;2023-01-31T11:58:00;97138.44;;;1.97;100.00
65614;BME280;52283;49.292;10.572;2023-01-31T12:00:31;97140.94;;;2.08;100.00
65614;BME280;52283;49.292;10.572;2023-01-31T12:03:00;97141.28;;;1.94;100.00
65614;BME280;52283;49.292;10.572;2023-01-31T12:05:35;97135.00;;;2.09;100.00
65614;BME280;52283;49.292;10.572;2023-01-31T12:08:04;97126.81;;;2.06;100.00
65614;BME280;52283;49.292;10.572;2023-01-31T12:10:34;97098.22;;;2.16;100.00
65614;BME280;52283;49.292;10.572;2023-01-31T12:13:10;97100.78;;;2.23;100.00
65614;BME280;52283;49.292;10.572;2023-01-31T12:15:44;97080.78;;;2.35;100.00
65614;BME280;52283;49.292;10.572;2023-01-31T12:18:12;97064.94;;;2.07;100.00
65614;BME280;52283;49.292;10.572;2023-01-31T12:20:43;97070.13;;;2.05;100.00
65614;BME280;52283;49.292;10.572;2023-01-31T12:23:26;97070.56;;;2.03;100.00
65614;BME280;52283;49.292;10.572;2023-01-31T12:26:03;97072.53;;;2.19;100.00
65614;BME280;52283;49.292;10.572;2023-01-31T12:28:43;97075.81;;;2.14;100.00
65614;BME280;52283;49.292;10.572;2023-01-31T12:31:35;97073.44;;;2.29;100.00
65614;BME280;52283;49.292;10.572;2023-01-31T12:34:22;97072.09;;;2.21;100.00
65614;BME280;52283;49.292;10.572;2023-01-31T12:37:02;97071.84;;;2.15;100.00
65614;BME280;52283;49.292;10.572;2023-01-31T12:42:38;97088.06;;;2.13;100.00
65614;BME280;52283;49.292;10.572;2023-01-31T12:45:23;97094.00;;;2.11;100.00
65614;BME280;52283;49.292;10.572;2023-01-31T12:48:06;97083.78;;;2.25;100.00
65614;BME280;52283;49.292;10.572;2023-01-31T12:50:38;97110.88;;;2.13;100.00
65614;BME280;52283;49.292;10.572;2023-01-31T12:53:23;97091.25;;;2.11;100.00
65614;BME280;52283;49.292;10.572;2023-01-31T12:56:05;97075.97;;;2.07;100.00
65614;BME280;52283;49.292;10.572;2023-01-31T12:58:44;97070.41;;;1.94;100.00
65614;BME280;52283;49.292;10.572;2023-01-31T13:01:15;97078.22;;;2.12;100.00
65614;BME280;52283;49.292;10.572;2023-01-31T13:03:55;97086.75;;;2.01;100.00
65614;BME280;52283;49.292;10.572;2023-01-31T13:06:29;97077.03;;;2.13;100.00
65614;BME280;52283;49.292;10.572;2023-01-31T13:08:59;97101.41;;;2.14;100.00
65614;BME280;52283;49.292;10.572;2023-01-31T13:11:34;97094.94;;;2.05;100.00
65614;BME280;52283;49.292;10.572;2023-01-31T13:14:04;97080.66;;;2.10;100.00